createdAt,value
2019-05-16T00:01:09.505Z,2.10
2019-05-16T00:03:39.358Z,1.90
2019-05-16T00:06:09.024Z,2.40
2019-05-16T00:08:38.917Z,2.10
2019-05-16T00:11:08.733Z,1.30
2019-05-16T00:13:38.491Z,2.07
2019-05-16T00:16:08.323Z,1.30
2019-05-16T00:18:38.834Z,1.40
2019-05-16T00:21:08.888Z,1.43
2019-05-16T00:23:38.587Z,1.90
2019-05-16T00:26:08.277Z,2.23
2019-05-16T00:28:38.141Z,2.37
2019-05-16T00:31:08.589Z,3.00
2019-05-16T00:33:38.473Z,1.30
2019-05-16T00:36:09.176Z,1.33
2019-05-16T00:38:38.998Z,2.57
2019-05-16T00:41:08.836Z,1.50
2019-05-16T00:43:38.510Z,1.20
2019-05-16T00:46:08.396Z,2.93
2019-05-16T00:48:38.313Z,1.30
2019-05-16T00:51:08.413Z,1.37
2019-05-16T00:53:38.390Z,5.77
2019-05-16T00:56:09.004Z,3.77
2019-05-16T00:58:39.199Z,1.13
2019-05-16T01:01:08.996Z,1.83
2019-05-16T01:03:38.745Z,1.27
2019-05-16T01:06:18.480Z,3.93
2019-05-16T01:08:40.009Z,2.37
2019-05-16T01:11:09.792Z,1.47
2019-05-16T01:13:39.528Z,2.40
2019-05-16T01:16:09.240Z,2.53
2019-05-16T01:18:39.028Z,2.20
2019-05-16T01:21:08.792Z,3.60
2019-05-16T01:23:38.910Z,1.10
2019-05-16T01:26:08.729Z,1.37
2019-05-16T01:28:38.500Z,1.30
2019-05-16T01:31:08.687Z,2.37
2019-05-16T01:33:38.674Z,1.37
2019-05-16T01:36:09.088Z,3.37
2019-05-16T01:38:39.179Z,2.50
2019-05-16T01:41:08.970Z,1.50
2019-05-16T01:43:38.731Z,1.93
2019-05-16T01:46:08.591Z,1.80
2019-05-16T01:48:38.384Z,1.23
2019-05-16T01:51:08.199Z,2.20
2019-05-16T01:53:39.515Z,1.17
2019-05-16T01:56:09.342Z,1.10
2019-05-16T01:58:39.203Z,1.20
2019-05-16T02:01:13.209Z,1.23
2019-05-16T02:03:40.460Z,1.20
2019-05-16T02:06:10.361Z,1.00
2019-05-16T02:08:40.180Z,2.90
2019-05-16T02:11:10.024Z,1.23
2019-05-16T02:13:39.912Z,1.63
2019-05-16T02:16:10.164Z,1.00
2019-05-16T02:18:39.938Z,1.30
2019-05-16T02:21:09.954Z,1.20
2019-05-16T02:23:39.878Z,1.40
2019-05-16T02:26:09.699Z,1.30
2019-05-16T02:28:42.979Z,1.67
2019-05-16T02:31:14.860Z,0.90
2019-05-16T02:33:43.167Z,1.77
2019-05-16T02:36:12.915Z,1.43
2019-05-16T02:38:42.677Z,1.80
2019-05-16T02:41:12.410Z,1.47
2019-05-16T02:43:42.459Z,1.30
2019-05-16T02:46:12.384Z,2.50
2019-05-16T02:48:43.415Z,1.40
2019-05-16T02:51:13.119Z,1.50
2019-05-16T02:53:44.379Z,1.20
2019-05-16T02:56:14.177Z,1.20
2019-05-16T02:58:45.024Z,1.47
2019-05-16T03:01:15.265Z,1.20
2019-05-16T03:03:45.074Z,1.70
2019-05-16T03:06:15.652Z,1.30
2019-05-16T03:08:47.387Z,1.20
2019-05-16T03:11:21.041Z,1.87
2019-05-16T03:13:53.089Z,1.60
2019-05-16T03:16:24.682Z,3.23
2019-05-16T03:18:55.042Z,1.50
2019-05-16T03:21:25.302Z,1.53
2019-05-16T03:23:55.121Z,1.17
2019-05-16T03:26:24.838Z,2.03
2019-05-16T03:28:54.665Z,2.63
2019-05-16T03:31:25.442Z,5.40
2019-05-16T03:33:59.183Z,5.57
2019-05-16T03:36:26.727Z,2.00
2019-05-16T03:38:56.430Z,1.77
2019-05-16T03:41:26.190Z,2.17
2019-05-16T03:43:55.900Z,2.73
2019-05-16T03:46:25.691Z,3.67
2019-05-16T03:48:55.445Z,2.13
2019-05-16T03:51:25.299Z,1.10
2019-05-16T03:53:55.031Z,1.40
2019-05-16T03:56:24.781Z,3.47
2019-05-16T03:58:54.599Z,3.00
2019-05-16T04:01:24.309Z,1.73
2019-05-16T04:03:54.205Z,1.63
2019-05-16T04:06:23.955Z,1.50
2019-05-16T04:08:53.693Z,3.53
2019-05-16T04:11:23.764Z,1.33
2019-05-16T04:13:53.871Z,2.30
2019-05-16T04:16:23.821Z,1.90
2019-05-16T04:18:53.505Z,1.40
2019-05-16T04:21:23.318Z,1.97
2019-05-16T04:23:53.033Z,1.10
2019-05-16T04:26:22.770Z,1.30
2019-05-16T04:28:52.516Z,3.27
2019-05-16T04:31:22.360Z,2.60
2019-05-16T04:33:52.198Z,1.40
2019-05-16T04:36:22.008Z,1.20
2019-05-16T04:38:51.794Z,2.40
2019-05-16T04:41:21.740Z,3.13
2019-05-16T04:43:51.454Z,1.60
2019-05-16T04:46:21.728Z,2.20
2019-05-16T04:48:51.633Z,1.77
2019-05-16T04:51:22.115Z,1.60
2019-05-16T04:53:51.979Z,1.57
2019-05-16T04:56:22.028Z,3.43
2019-05-16T04:58:52.029Z,3.50
2019-05-16T05:01:21.953Z,1.90
2019-05-16T05:04:06.151Z,5.43
2019-05-16T05:06:23.193Z,2.43
2019-05-16T05:08:58.513Z,1.20
2019-05-16T05:11:24.516Z,2.23
2019-05-16T05:13:54.215Z,1.43
2019-05-16T05:16:23.970Z,2.60
2019-05-16T05:18:53.679Z,2.40
2019-05-16T05:21:23.417Z,2.10
2019-05-16T05:23:53.181Z,2.10
2019-05-16T05:26:23.062Z,1.70
2019-05-16T05:28:52.946Z,1.83
2019-05-16T05:31:24.738Z,2.50
2019-05-16T05:33:54.210Z,2.03
2019-05-16T05:36:23.934Z,2.07
2019-05-16T05:39:07.929Z,4.67
2019-05-16T05:41:30.454Z,4.70
2019-05-16T05:43:59.941Z,2.80
2019-05-16T05:46:31.636Z,3.73
2019-05-16T05:49:01.180Z,3.17
2019-05-16T05:51:30.990Z,7.40
2019-05-16T05:54:00.730Z,7.40
2019-05-16T05:56:30.677Z,2.13
2019-05-16T05:59:01.533Z,3.53
2019-05-16T06:01:31.670Z,3.70
2019-05-16T06:04:01.619Z,2.83
2019-05-16T06:06:31.441Z,5.23
2019-05-16T06:09:02.413Z,3.10
2019-05-16T06:11:32.465Z,3.30
2019-05-16T06:14:02.305Z,3.53
2019-05-16T06:16:32.061Z,2.40
2019-05-16T06:19:01.782Z,4.60
2019-05-16T06:21:33.220Z,4.70
2019-05-16T06:24:03.255Z,2.10
2019-05-16T06:26:32.990Z,4.93
2019-05-16T06:29:02.759Z,3.10
2019-05-16T06:31:32.560Z,3.10
2019-05-16T06:34:07.936Z,3.73
2019-05-16T06:36:33.928Z,3.33
2019-05-16T06:39:05.428Z,4.43
2019-05-16T06:41:35.333Z,3.20
2019-05-16T06:44:05.206Z,4.60
2019-05-16T06:46:43.752Z,4.27
2019-05-16T06:49:06.587Z,5.30
2019-05-16T06:51:36.367Z,4.27
2019-05-16T06:54:06.180Z,2.33
2019-05-16T06:56:35.895Z,2.83
2019-05-16T06:59:05.716Z,4.13
2019-05-16T07:01:37.068Z,3.80
2019-05-16T07:04:07.092Z,8.83
2019-05-16T07:06:51.868Z,3.30
2019-05-16T07:09:10.501Z,6.57
2019-05-16T07:11:40.114Z,2.47
2019-05-16T07:14:10.631Z,4.80
2019-05-16T07:16:40.947Z,4.57
2019-05-16T07:19:10.790Z,3.60
2019-05-16T07:21:40.591Z,4.43
2019-05-16T07:24:10.977Z,6.33
2019-05-16T07:26:41.007Z,2.40
2019-05-16T07:29:11.220Z,1.67
2019-05-16T07:31:41.089Z,3.10
2019-05-16T07:34:14.036Z,5.77
2019-05-16T07:36:42.245Z,4.00
2019-05-16T07:39:12.003Z,3.83
2019-05-16T07:41:41.756Z,1.80
2019-05-16T07:44:11.498Z,1.73
2019-05-16T07:46:46.749Z,2.70
2019-05-16T07:49:16.520Z,3.77
2019-05-16T07:51:46.287Z,4.53
2019-05-16T07:54:16.092Z,1.57
2019-05-16T07:56:45.930Z,2.03
2019-05-16T07:59:15.692Z,3.23
2019-05-16T08:01:45.622Z,1.60
2019-05-16T08:04:15.411Z,1.60
2019-05-16T08:06:47.089Z,1.60
2019-05-16T08:09:16.729Z,3.40
2019-05-16T08:11:46.567Z,1.60
2019-05-16T08:14:16.367Z,5.17
2019-05-16T08:16:46.256Z,1.73
2019-05-16T08:19:15.975Z,1.97
2019-05-16T08:21:45.822Z,1.37
2019-05-16T08:24:15.647Z,3.70
2019-05-16T08:26:45.544Z,3.23
2019-05-16T08:29:15.369Z,3.03
2019-05-16T08:31:45.081Z,1.30
2019-05-16T08:34:14.815Z,1.53
2019-05-16T08:36:44.668Z,2.87
2019-05-16T08:39:14.482Z,4.13
2019-05-16T08:41:44.239Z,6.33
2019-05-16T08:44:14.142Z,1.30
2019-05-16T08:46:43.961Z,2.30
2019-05-16T08:49:13.846Z,2.43
2019-05-16T08:51:43.719Z,4.00
2019-05-16T08:54:13.745Z,1.50
2019-05-16T08:56:44.540Z,1.33
2019-05-16T08:59:14.496Z,1.27
2019-05-16T09:01:52.153Z,1.30
2019-05-16T09:04:15.718Z,2.30
2019-05-16T09:06:45.601Z,2.47
2019-05-16T09:10:26.158Z,2.37
2019-05-16T09:11:48.693Z,1.87
2019-05-16T09:14:18.264Z,1.40
2019-05-16T09:16:48.100Z,1.20
2019-05-16T09:19:17.801Z,2.60
2019-05-16T09:21:47.886Z,6.63
2019-05-16T09:24:18.170Z,10.00
2019-05-16T09:26:48.185Z,2.27
2019-05-16T09:29:17.990Z,2.40
2019-05-16T09:32:07.402Z,2.13
2019-05-16T09:34:19.280Z,4.80
2019-05-16T09:36:49.170Z,4.57
2019-05-16T09:39:19.049Z,2.47
2019-05-16T09:41:54.550Z,3.53
2019-05-16T09:44:20.236Z,3.90
2019-05-16T09:46:50.138Z,4.37
2019-05-16T09:49:24.617Z,4.60
2019-05-16T09:51:51.567Z,2.33
2019-05-16T09:54:21.440Z,3.63
2019-05-16T09:56:51.323Z,4.00
2019-05-16T09:59:21.125Z,1.93
2019-05-16T10:01:50.979Z,2.20
2019-05-16T10:04:20.769Z,2.77
2019-05-16T10:06:50.579Z,6.63
2019-05-16T10:09:20.418Z,2.23
2019-05-16T10:12:05.467Z,4.93
2019-05-16T10:14:21.724Z,2.13
2019-05-16T10:16:51.602Z,5.83
2019-05-16T10:19:21.448Z,3.03
2019-05-16T10:21:51.225Z,3.33
2019-05-16T10:24:21.150Z,2.33
2019-05-16T10:26:53.930Z,3.90
2019-05-16T10:29:22.619Z,2.50
2019-05-16T10:31:53.413Z,3.00
2019-05-16T10:34:23.491Z,3.50
2019-05-16T10:36:53.296Z,3.83
2019-05-16T10:39:23.216Z,3.83
2019-05-16T10:41:53.053Z,2.00
2019-05-16T10:44:22.931Z,5.77
2019-05-16T10:46:52.781Z,5.37
2019-05-16T10:49:34.323Z,2.27
2019-05-16T10:51:54.145Z,5.30
2019-05-16T10:54:23.959Z,2.90
2019-05-16T10:56:53.816Z,2.00
2019-05-16T10:59:56.609Z,3.23
2019-05-16T11:01:56.351Z,2.10
2019-05-16T11:04:37.594Z,4.07
2019-05-16T11:06:58.063Z,2.60
2019-05-16T11:09:27.826Z,4.97
2019-05-16T11:11:57.625Z,2.57
2019-05-16T11:14:28.202Z,5.40
2019-05-16T11:16:58.276Z,7.80
2019-05-16T11:19:28.487Z,4.73
2019-05-16T11:21:58.345Z,3.17
2019-05-16T11:24:29.331Z,4.03
2019-05-16T11:26:59.314Z,3.37
2019-05-16T11:29:29.237Z,7.47
2019-05-16T11:31:59.036Z,4.20
2019-05-16T11:34:28.763Z,4.40
2019-05-16T11:36:58.546Z,3.87
2019-05-16T11:39:28.386Z,3.13
2019-05-16T11:41:58.284Z,2.20
2019-05-16T11:44:28.918Z,6.03
2019-05-16T11:46:59.054Z,3.70
2019-05-16T11:49:28.750Z,4.23
2019-05-16T11:51:58.514Z,3.17
2019-05-16T11:54:28.239Z,4.40
2019-05-16T11:56:58.148Z,5.17
2019-05-16T11:59:27.843Z,2.43
2019-05-16T12:01:57.614Z,2.67
2019-05-16T12:04:28.094Z,5.37
2019-05-16T12:06:58.188Z,7.63
2019-05-16T12:09:33.659Z,3.70
2019-05-16T12:12:03.887Z,4.77
2019-05-16T12:14:31.050Z,4.73
2019-05-16T12:17:00.928Z,7.07
2019-05-16T12:19:34.453Z,5.20
2019-05-16T12:22:02.242Z,5.93
2019-05-16T12:24:37.457Z,4.37
2019-05-16T12:27:03.587Z,2.97
2019-05-16T12:29:33.335Z,3.83
2019-05-16T12:32:03.429Z,4.23
2019-05-16T12:34:33.557Z,3.97
2019-05-16T12:37:03.284Z,6.37
2019-05-16T12:39:33.204Z,2.00
2019-05-16T12:42:03.035Z,2.13
2019-05-16T12:44:32.782Z,5.57
2019-05-16T12:47:02.589Z,6.43
2019-05-16T12:49:32.437Z,6.17
2019-05-16T12:52:02.281Z,9.33
2019-05-16T12:54:31.953Z,5.70
2019-05-16T12:57:01.690Z,4.50
2019-05-16T12:59:31.453Z,2.63
2019-05-16T13:02:01.193Z,3.67
2019-05-16T13:04:30.950Z,4.83
2019-05-16T13:07:00.805Z,6.67
2019-05-16T13:09:30.548Z,3.70
2019-05-16T13:12:00.289Z,2.47
2019-05-16T13:14:30.173Z,5.20
2019-05-16T13:17:00.021Z,5.33
2019-05-16T13:19:32.969Z,1.60
2019-05-16T13:22:01.347Z,2.70
2019-05-16T13:24:31.178Z,2.80
2019-05-16T13:27:01.005Z,4.30
2019-05-16T13:29:30.810Z,2.93
2019-05-16T13:32:00.788Z,3.90
2019-05-16T13:34:30.709Z,9.00
2019-05-16T13:37:00.565Z,3.97
2019-05-16T13:39:30.285Z,4.70
2019-05-16T13:42:00.079Z,3.70
2019-05-16T13:44:29.817Z,3.47
2019-05-16T13:47:26.814Z,6.53
2019-05-16T13:49:55.879Z,5.57
2019-05-16T13:52:28.232Z,4.03
2019-05-16T13:54:57.262Z,5.23
2019-05-16T13:57:28.333Z,7.73
2019-05-16T13:59:58.293Z,3.83
2019-05-16T14:02:28.117Z,5.97
2019-05-16T14:04:57.892Z,6.33
2019-05-16T14:07:27.626Z,4.50
2019-05-16T14:09:57.957Z,3.97
2019-05-16T14:12:27.728Z,3.23
2019-05-16T14:14:57.547Z,7.47
2019-05-16T14:17:27.622Z,6.03
2019-05-16T14:19:57.487Z,5.30
2019-05-16T14:22:27.768Z,8.47
2019-05-16T14:24:57.710Z,6.87
2019-05-16T14:27:27.506Z,7.67
2019-05-16T14:29:57.855Z,5.67
2019-05-16T14:32:27.641Z,2.53
2019-05-16T14:34:58.948Z,5.50
2019-05-16T14:37:29.034Z,6.30
2019-05-16T14:40:01.314Z,7.40
2019-05-16T14:42:30.410Z,5.57
2019-05-16T14:45:10.831Z,9.00
2019-05-16T14:47:31.682Z,6.87
2019-05-16T14:50:01.626Z,5.43
2019-05-16T14:52:31.590Z,10.43
2019-05-16T14:55:01.496Z,9.03
2019-05-16T14:57:31.240Z,10.70
2019-05-16T15:00:01.003Z,13.37
2019-05-16T15:02:30.794Z,11.07
2019-05-16T15:05:00.609Z,11.13
2019-05-16T15:07:30.538Z,4.40
2019-05-16T15:10:00.340Z,8.27
2019-05-16T15:12:30.162Z,8.30
2019-05-16T15:15:15.644Z,5.83
2019-05-16T15:17:31.601Z,7.60
2019-05-16T15:20:01.287Z,7.60
2019-05-16T15:22:31.078Z,7.93
2019-05-16T15:25:00.888Z,6.47
2019-05-16T15:27:30.733Z,4.17
2019-05-16T15:30:00.547Z,11.53
2019-05-16T15:32:31.808Z,6.17
2019-05-16T15:35:01.823Z,9.27
2019-05-16T15:37:31.715Z,9.57
2019-05-16T15:40:01.509Z,8.23
2019-05-16T15:42:31.260Z,14.87
2019-05-16T15:45:01.103Z,5.47
2019-05-16T15:47:31.294Z,9.63
2019-05-16T15:50:01.120Z,5.17
2019-05-16T15:52:31.536Z,10.27
2019-05-16T15:55:02.474Z,8.10
2019-05-16T15:57:32.269Z,6.03
2019-05-16T16:00:02.144Z,5.47
2019-05-16T16:02:32.029Z,6.53
2019-05-16T16:05:01.777Z,7.27
2019-05-16T16:07:33.087Z,9.67
2019-05-16T16:10:03.120Z,5.87
2019-05-16T16:12:32.949Z,6.77
2019-05-16T16:15:02.757Z,4.40
2019-05-16T16:17:32.865Z,12.07
2019-05-16T16:20:02.776Z,6.83
2019-05-16T16:22:32.654Z,11.30
2019-05-16T16:25:02.440Z,2.70
2019-05-16T16:27:32.178Z,9.43
2019-05-16T16:30:02.130Z,6.93
2019-05-16T16:32:31.987Z,6.63
2019-05-16T16:35:01.730Z,5.67
2019-05-16T16:37:31.551Z,3.80
2019-05-16T16:40:01.343Z,6.37
2019-05-16T16:42:31.132Z,4.00
2019-05-16T16:45:01.059Z,5.27
2019-05-16T16:47:31.836Z,8.40
2019-05-16T16:50:01.671Z,4.03
2019-05-16T16:52:31.517Z,3.87
2019-05-16T16:55:01.420Z,6.60
2019-05-16T16:57:31.518Z,10.37
2019-05-16T17:00:01.426Z,10.93
2019-05-16T17:02:31.330Z,5.13
2019-05-16T17:05:02.664Z,5.47
2019-05-16T17:07:32.629Z,10.07
2019-05-16T17:10:02.462Z,5.00
2019-05-16T17:12:32.283Z,6.73
2019-05-16T17:15:02.326Z,5.80
2019-05-16T17:17:32.241Z,8.27
2019-05-16T17:20:02.143Z,13.73
2019-05-16T17:22:32.008Z,6.67
2019-05-16T17:25:01.883Z,10.47
2019-05-16T17:27:31.721Z,6.53
2019-05-16T17:30:01.627Z,6.70
2019-05-16T17:32:31.403Z,7.33
2019-05-16T17:35:01.168Z,10.70
2019-05-16T17:37:30.983Z,7.70
2019-05-16T17:40:00.800Z,9.67
2019-05-16T17:42:30.890Z,7.33
2019-05-16T17:45:00.653Z,7.23
2019-05-16T17:47:31.782Z,10.17
2019-05-16T17:50:01.702Z,7.73
2019-05-16T17:52:31.487Z,7.00
2019-05-16T17:55:01.453Z,8.17
2019-05-16T17:57:31.245Z,6.30
2019-05-16T18:00:01.188Z,9.23
2019-05-16T18:02:31.009Z,7.63
2019-05-16T18:05:00.886Z,11.00
2019-05-16T18:07:30.690Z,7.37
2019-05-16T18:10:00.508Z,6.00
2019-05-16T18:12:30.417Z,7.23
2019-05-16T18:15:00.184Z,12.33
2019-05-16T18:17:30.048Z,15.73
2019-05-16T18:19:59.878Z,8.17
2019-05-16T18:22:29.685Z,10.47
2019-05-16T18:24:59.635Z,7.23
2019-05-16T18:27:29.480Z,8.87
2019-05-16T18:29:59.215Z,9.03
2019-05-16T18:32:29.129Z,6.87
2019-05-16T18:34:58.976Z,5.93
2019-05-16T18:37:28.739Z,10.13
2019-05-16T18:39:58.658Z,5.53
2019-05-16T18:42:28.555Z,5.27
2019-05-16T18:44:58.321Z,9.07
2019-05-16T18:47:28.257Z,7.33
2019-05-16T18:49:58.084Z,7.73
2019-05-16T18:52:27.811Z,4.53
2019-05-16T18:54:57.795Z,9.70
2019-05-16T18:57:27.671Z,6.93
2019-05-16T18:59:57.732Z,7.37
2019-05-16T19:02:27.659Z,4.80
2019-05-16T19:04:57.885Z,6.63
2019-05-16T19:07:27.925Z,4.33
2019-05-16T19:09:57.736Z,9.63
2019-05-16T19:12:27.670Z,5.83
2019-05-16T19:15:00.208Z,8.57
2019-05-16T19:17:29.167Z,8.47
2019-05-16T19:19:59.141Z,9.17
2019-05-16T19:22:29.016Z,6.20
2019-05-16T19:24:58.945Z,3.67
2019-05-16T19:27:28.900Z,4.87
2019-05-16T19:29:58.928Z,8.13
2019-05-16T19:32:28.724Z,6.63
2019-05-16T19:35:00.436Z,8.60
2019-05-16T19:37:30.386Z,8.80
2019-05-16T19:40:06.438Z,11.23
2019-05-16T19:42:38.144Z,8.80
2019-05-16T19:45:09.072Z,9.00
2019-05-16T19:47:41.561Z,5.37
2019-05-16T19:50:13.037Z,5.13
2019-05-16T19:53:08.658Z,6.17
2019-05-16T19:56:20.132Z,5.17
2019-05-16T19:58:38.107Z,7.60
2019-05-16T20:01:09.675Z,6.47
2019-05-16T20:03:39.497Z,4.90
2019-05-16T20:06:09.413Z,8.37
2019-05-16T20:08:39.201Z,7.03
2019-05-16T20:11:09.046Z,8.33
2019-05-16T20:13:38.890Z,7.73
2019-05-16T20:16:08.753Z,4.73
2019-05-16T20:18:38.535Z,8.80
2019-05-16T20:21:09.202Z,8.63
2019-05-16T20:23:39.028Z,7.00
2019-05-16T20:26:08.789Z,5.43
2019-05-16T20:28:38.545Z,7.43
2019-05-16T20:31:08.362Z,3.97
2019-05-16T20:33:38.191Z,4.97
2019-05-16T20:36:09.435Z,11.20
2019-05-16T20:38:39.482Z,6.67
2019-05-16T20:41:09.210Z,7.40
2019-05-16T20:43:39.067Z,3.10
2019-05-16T20:46:08.886Z,12.97
2019-05-16T20:48:39.685Z,4.77
2019-05-16T20:51:09.563Z,8.00
2019-05-16T20:53:39.437Z,15.00
2019-05-16T20:56:09.381Z,4.57
2019-05-16T20:58:39.150Z,3.83
2019-05-16T21:01:08.961Z,7.07
2019-05-16T21:03:38.740Z,7.97
2019-05-16T21:06:09.023Z,8.97
2019-05-16T21:08:38.752Z,9.90
2019-05-16T21:11:08.613Z,5.90
2019-05-16T21:13:38.404Z,10.07
2019-05-16T21:16:08.237Z,6.87
2019-05-16T21:18:37.985Z,4.37
2019-05-16T21:21:07.934Z,7.80
2019-05-16T21:23:37.709Z,7.87
2019-05-16T21:26:07.638Z,6.20
2019-05-16T21:28:37.570Z,8.07
2019-05-16T21:31:07.656Z,10.53
2019-05-16T21:33:37.504Z,6.63
2019-05-16T21:36:07.415Z,6.17
2019-05-16T21:38:37.255Z,7.37
2019-05-16T21:41:07.506Z,6.50
2019-05-16T21:43:37.765Z,9.33
2019-05-16T21:46:07.716Z,6.23
2019-05-16T21:48:42.056Z,6.30
2019-05-16T21:51:11.835Z,7.23
2019-05-16T21:53:43.121Z,5.33
2019-05-16T21:56:12.910Z,9.40
2019-05-16T21:58:42.649Z,9.27
2019-05-16T22:01:15.484Z,5.80
2019-05-16T22:03:47.098Z,4.63
2019-05-16T22:06:16.971Z,4.30
2019-05-16T22:08:47.519Z,8.27
2019-05-16T22:11:17.366Z,4.83
2019-05-16T22:13:47.017Z,9.53
2019-05-16T22:16:17.550Z,5.13
2019-05-16T22:18:47.687Z,3.83
2019-05-16T22:21:17.423Z,8.67
2019-05-16T22:23:47.259Z,11.23
2019-05-16T22:26:17.098Z,4.90
2019-05-16T22:28:49.436Z,11.73
2019-05-16T22:31:18.337Z,13.53
2019-05-16T22:33:48.044Z,8.83
2019-05-16T22:36:17.733Z,6.47
2019-05-16T22:38:47.428Z,9.17
2019-05-16T22:41:17.405Z,5.77
2019-05-16T22:43:47.158Z,8.33
2019-05-16T22:46:17.846Z,12.73
2019-05-16T22:48:47.759Z,5.43
2019-05-16T22:51:17.516Z,11.30
2019-05-16T22:53:47.272Z,8.40
2019-05-16T22:56:17.365Z,6.37
2019-05-16T22:58:47.437Z,7.87
2019-05-16T23:01:17.654Z,13.20
2019-05-16T23:03:47.357Z,4.93
2019-05-16T23:06:17.044Z,5.73
2019-05-16T23:08:47.171Z,10.53
2019-05-16T23:11:17.116Z,14.07
2019-05-16T23:13:46.816Z,15.03
2019-05-16T23:16:17.176Z,4.57
2019-05-16T23:18:47.207Z,6.23
2019-05-16T23:21:17.188Z,12.10
2019-05-16T23:23:46.917Z,7.70
2019-05-16T23:26:16.853Z,3.87
2019-05-16T23:28:47.196Z,13.17
2019-05-16T23:31:17.187Z,7.43
2019-05-16T23:33:47.189Z,11.60
2019-05-16T23:36:17.581Z,9.67
2019-05-16T23:38:47.604Z,8.27
2019-05-16T23:41:17.555Z,10.40
2019-05-16T23:43:47.482Z,10.83
2019-05-16T23:46:17.307Z,6.73
2019-05-16T23:48:47.365Z,13.70
2019-05-16T23:51:40.304Z,16.20
2019-05-16T23:54:10.092Z,12.30
2019-05-16T23:56:43.184Z,10.47
2019-05-16T23:59:13.024Z,10.87
